<?xml version="1.0" encoding="UTF-8" standalone="no" ?>
<gpx xmlns="http://www.topografix.com/GPX/1/1" xmlns:xsi="http://www.w3.org/2001/XMLSchema-instance" xsi:schemaLocation="http://www.topografix.com/GPX/1/1 http://www.topografix.com/GPX/1/1/gpx.xsd" version="1.1" creator="VisuGPX - https://www.visugpx.com">
  <metadata>
    <name>Ligne 3 Crêts de Champel - Gardiol </name>
  </metadata>
  <trk>
    <name><![CDATA[Ligne 3 Crets de champel - Gardiol 2018_Sans titre - Trajet]]></name>
    <trkseg>
      <trkpt lat="46.18718" lon="6.15914">
        <ele>427.3</ele>
        <time>2020-05-04T12:43:06.000Z</time>
      </trkpt>
      <trkpt lat="46.18713" lon="6.15921">
        <ele>425.7</ele>
        <time>2020-05-04T12:43:06.639Z</time>
      </trkpt>
      <trkpt lat="46.1871" lon="6.15927">
        <ele>425.5</ele>
        <time>2020-05-04T12:43:07.129Z</time>
      </trkpt>
      <trkpt lat="46.18709" lon="6.15931">
        <ele>425.5</ele>
        <time>2020-05-04T12:43:07.662Z</time>
      </trkpt>
      <trkpt lat="46.1871" lon="6.15937">
        <ele>425.4</ele>
        <time>2020-05-04T12:43:08.149Z</time>
      </trkpt>
      <trkpt lat="46.18712" lon="6.15941">
        <ele>425.4</ele>
        <time>2020-05-04T12:43:08.703Z</time>
      </trkpt>
      <trkpt lat="46.18715" lon="6.15944">
        <ele>425.4</ele>
        <time>2020-05-04T12:43:09.374Z</time>
      </trkpt>
      <trkpt lat="46.18718" lon="6.15947">
        <ele>425.5</ele>
        <time>2020-05-04T12:43:10.235Z</time>
      </trkpt>
      <trkpt lat="46.18721" lon="6.15946">
        <ele>425.6</ele>
        <time>2020-05-04T12:43:10.902Z</time>
      </trkpt>
      <trkpt lat="46.18723" lon="6.15943">
        <ele>425.8</ele>
        <time>2020-05-04T12:43:11.972Z</time>
      </trkpt>
      <trkpt lat="46.18728" lon="6.15938">
        <ele>426.1</ele>
        <time>2020-05-04T12:43:13.689Z</time>
      </trkpt>
      <trkpt lat="46.18738" lon="6.15919">
        <ele>427.4</ele>
        <time>2020-05-04T12:43:19.734Z</time>
      </trkpt>
      <trkpt lat="46.18746" lon="6.15904">
        <ele>428.3</ele>
        <time>2020-05-04T12:43:24.210Z</time>
      </trkpt>
      <trkpt lat="46.18761" lon="6.1588">
        <ele>429.6</ele>
        <time>2020-05-04T12:43:31.210Z</time>
      </trkpt>
      <trkpt lat="46.1877" lon="6.15866">
        <ele>429.8</ele>
        <time>2020-05-04T12:43:33.870Z</time>
      </trkpt>
      <trkpt lat="46.18818" lon="6.15798">
        <ele>430.2</ele>
        <time>2020-05-04T12:43:46.057Z</time>
      </trkpt>
      <trkpt lat="46.18846" lon="6.15757">
        <ele>429.6</ele>
        <time>2020-05-04T12:43:51.176Z</time>
      </trkpt>
      <trkpt lat="46.18877" lon="6.15716">
        <ele>429.1</ele>
        <time>2020-05-04T12:43:56.852Z</time>
      </trkpt>
      <trkpt lat="46.18896" lon="6.15691">
        <ele>428.8</ele>
        <time>2020-05-04T12:44:00.385Z</time>
      </trkpt>
      <trkpt lat="46.18915" lon="6.1567">
        <ele>428.2</ele>
        <time>2020-05-04T12:44:03.086Z</time>
      </trkpt>
      <trkpt lat="46.18931" lon="6.15653">
        <ele>426.7</ele>
        <time>2020-05-04T12:44:04.834Z</time>
      </trkpt>
      <trkpt lat="46.18938" lon="6.15646">
        <ele>426.3</ele>
        <time>2020-05-04T12:44:05.626Z</time>
      </trkpt>
      <trkpt lat="46.1894" lon="6.15641">
        <ele>426.2</ele>
        <time>2020-05-04T12:44:06.112Z</time>
      </trkpt>
      <trkpt lat="46.18941" lon="6.15635">
        <ele>426.1</ele>
        <time>2020-05-04T12:44:06.569Z</time>
      </trkpt>
      <trkpt lat="46.1894" lon="6.15629">
        <ele>426</ele>
        <time>2020-05-04T12:44:07.096Z</time>
      </trkpt>
      <trkpt lat="46.18937" lon="6.15624">
        <ele>425.9</ele>
        <time>2020-05-04T12:44:07.616Z</time>
      </trkpt>
      <trkpt lat="46.18935" lon="6.1562">
        <ele>425.8</ele>
        <time>2020-05-04T12:44:08.070Z</time>
      </trkpt>
      <trkpt lat="46.18899" lon="6.15585">
        <ele>426.2</ele>
        <time>2020-05-04T12:44:16.049Z</time>
      </trkpt>
      <trkpt lat="46.18812" lon="6.15498">
        <ele>428.1</ele>
        <time>2020-05-04T12:44:37.640Z</time>
      </trkpt>
      <trkpt lat="46.18797" lon="6.15481">
        <ele>428.7</ele>
        <time>2020-05-04T12:44:42.202Z</time>
      </trkpt>
      <trkpt lat="46.18794" lon="6.15478">
        <ele>428.7</ele>
        <time>2020-05-04T12:44:42.845Z</time>
      </trkpt>
      <trkpt lat="46.18792" lon="6.15474">
        <ele>428.8</ele>
        <time>2020-05-04T12:44:43.625Z</time>
      </trkpt>
      <trkpt lat="46.18792" lon="6.15469">
        <ele>428.8</ele>
        <time>2020-05-04T12:44:44.175Z</time>
      </trkpt>
      <trkpt lat="46.18792" lon="6.15464">
        <ele>428.8</ele>
        <time>2020-05-04T12:44:44.748Z</time>
      </trkpt>
      <trkpt lat="46.18795" lon="6.15458">
        <ele>428.7</ele>
        <time>2020-05-04T12:44:45.382Z</time>
      </trkpt>
      <trkpt lat="46.18812" lon="6.15423">
        <ele>428.4</ele>
        <time>2020-05-04T12:44:49.446Z</time>
      </trkpt>
      <trkpt lat="46.18824" lon="6.15398">
        <ele>427</ele>
        <time>2020-05-04T12:44:51.130Z</time>
      </trkpt>
      <trkpt lat="46.18834" lon="6.15374">
        <ele>429.2</ele>
        <time>2020-05-04T12:45:01.034Z</time>
      </trkpt>
      <trkpt lat="46.18845" lon="6.15351">
        <ele>429.1</ele>
        <time>2020-05-04T12:45:04.104Z</time>
      </trkpt>
      <trkpt lat="46.18861" lon="6.1531">
        <ele>428.9</ele>
        <time>2020-05-04T12:45:09.185Z</time>
      </trkpt>
      <trkpt lat="46.18879" lon="6.15269">
        <ele>428.8</ele>
        <time>2020-05-04T12:45:14.657Z</time>
      </trkpt>
      <trkpt lat="46.18888" lon="6.15245">
        <ele>425</ele>
        <time>2020-05-04T12:45:16.277Z</time>
      </trkpt>
      <trkpt lat="46.18893" lon="6.15233">
        <ele>424.6</ele>
        <time>2020-05-04T12:45:17.296Z</time>
      </trkpt>
      <trkpt lat="46.18897" lon="6.15227">
        <ele>424.3</ele>
        <time>2020-05-04T12:45:17.746Z</time>
      </trkpt>
      <trkpt lat="46.18902" lon="6.15224">
        <ele>424.1</ele>
        <time>2020-05-04T12:45:18.257Z</time>
      </trkpt>
      <trkpt lat="46.18909" lon="6.15224">
        <ele>424.2</ele>
        <time>2020-05-04T12:45:19.615Z</time>
      </trkpt>
      <trkpt lat="46.18918" lon="6.15226">
        <ele>423.7</ele>
        <time>2020-05-04T12:45:20.511Z</time>
      </trkpt>
      <trkpt lat="46.18953" lon="6.15237">
        <ele>423.4</ele>
        <time>2020-05-04T12:45:25.474Z</time>
      </trkpt>
      <trkpt lat="46.19005" lon="6.1525">
        <ele>426.3</ele>
        <time>2020-05-04T12:45:41.833Z</time>
      </trkpt>
      <trkpt lat="46.19059" lon="6.15269">
        <ele>426.1</ele>
        <time>2020-05-04T12:45:50.835Z</time>
      </trkpt>
      <trkpt lat="46.19109" lon="6.15287">
        <ele>423.2</ele>
        <time>2020-05-04T12:45:55.233Z</time>
      </trkpt>
      <trkpt lat="46.19137" lon="6.15296">
        <ele>422.4</ele>
        <time>2020-05-04T12:45:58.435Z</time>
      </trkpt>
      <trkpt lat="46.19151" lon="6.15302">
        <ele>422</ele>
        <time>2020-05-04T12:46:00.098Z</time>
      </trkpt>
      <trkpt lat="46.19151" lon="6.15302">
        <ele>422</ele>
        <time>2020-05-04T12:46:00.184Z</time>
      </trkpt>
      <trkpt lat="46.19175" lon="6.15314">
        <ele>419.3</ele>
        <time>2020-05-04T12:46:02.339Z</time>
      </trkpt>
      <trkpt lat="46.19194" lon="6.15322">
        <ele>419</ele>
        <time>2020-05-04T12:46:04.957Z</time>
      </trkpt>
      <trkpt lat="46.19246" lon="6.15346">
        <ele>417.9</ele>
        <time>2020-05-04T12:46:11.587Z</time>
      </trkpt>
      <trkpt lat="46.19282" lon="6.15363">
        <ele>416.3</ele>
        <time>2020-05-04T12:46:15.236Z</time>
      </trkpt>
      <trkpt lat="46.19298" lon="6.15368">
        <ele>416</ele>
        <time>2020-05-04T12:46:17.336Z</time>
      </trkpt>
      <trkpt lat="46.19319" lon="6.15374">
        <ele>415.9</ele>
        <time>2020-05-04T12:46:20.744Z</time>
      </trkpt>
      <trkpt lat="46.19341" lon="6.15378">
        <ele>414.6</ele>
        <time>2020-05-04T12:46:22.584Z</time>
      </trkpt>
      <trkpt lat="46.1936" lon="6.15382">
        <ele>414.6</ele>
        <time>2020-05-04T12:46:25.807Z</time>
      </trkpt>
      <trkpt lat="46.19367" lon="6.15383">
        <ele>414.5</ele>
        <time>2020-05-04T12:46:26.820Z</time>
      </trkpt>
      <trkpt lat="46.19375" lon="6.15379">
        <ele>414.3</ele>
        <time>2020-05-04T12:46:27.839Z</time>
      </trkpt>
      <trkpt lat="46.19382" lon="6.1537">
        <ele>414.1</ele>
        <time>2020-05-04T12:46:28.865Z</time>
      </trkpt>
      <trkpt lat="46.19397" lon="6.15342">
        <ele>413.2</ele>
        <time>2020-05-04T12:46:31.447Z</time>
      </trkpt>
      <trkpt lat="46.19409" lon="6.15313">
        <ele>411.7</ele>
        <time>2020-05-04T12:46:33.304Z</time>
      </trkpt>
      <trkpt lat="46.19423" lon="6.1528">
        <ele>410.5</ele>
        <time>2020-05-04T12:46:35.874Z</time>
      </trkpt>
      <trkpt lat="46.19444" lon="6.15228">
        <ele>408.3</ele>
        <time>2020-05-04T12:46:39.550Z</time>
      </trkpt>
      <trkpt lat="46.19453" lon="6.15211">
        <ele>408.1</ele>
        <time>2020-05-04T12:46:41.503Z</time>
      </trkpt>
      <trkpt lat="46.19464" lon="6.15191">
        <ele>407.7</ele>
        <time>2020-05-04T12:46:43.586Z</time>
      </trkpt>
      <trkpt lat="46.19477" lon="6.15172">
        <ele>407.2</ele>
        <time>2020-05-04T12:46:45.643Z</time>
      </trkpt>
      <trkpt lat="46.19489" lon="6.15156">
        <ele>405.6</ele>
        <time>2020-05-04T12:46:47.086Z</time>
      </trkpt>
      <trkpt lat="46.19505" lon="6.15138">
        <ele>406.1</ele>
        <time>2020-05-04T12:46:51.553Z</time>
      </trkpt>
      <trkpt lat="46.19519" lon="6.15127">
        <ele>406.1</ele>
        <time>2020-05-04T12:46:54.259Z</time>
      </trkpt>
      <trkpt lat="46.19572" lon="6.15081">
        <ele>406</ele>
        <time>2020-05-04T12:47:04.614Z</time>
      </trkpt>
      <trkpt lat="46.19582" lon="6.15075">
        <ele>406.1</ele>
        <time>2020-05-04T12:47:06.524Z</time>
      </trkpt>
      <trkpt lat="46.1959" lon="6.15071">
        <ele>406.3</ele>
        <time>2020-05-04T12:47:08.403Z</time>
      </trkpt>
      <trkpt lat="46.19601" lon="6.15068">
        <ele>406.3</ele>
        <time>2020-05-04T12:47:10.333Z</time>
      </trkpt>
      <trkpt lat="46.19611" lon="6.15068">
        <ele>406.2</ele>
        <time>2020-05-04T12:47:11.643Z</time>
      </trkpt>
      <trkpt lat="46.19615" lon="6.15066">
        <ele>406.1</ele>
        <time>2020-05-04T12:47:12.220Z</time>
      </trkpt>
      <trkpt lat="46.19621" lon="6.15059">
        <ele>406.1</ele>
        <time>2020-05-04T12:47:13.576Z</time>
      </trkpt>
      <trkpt lat="46.19643" lon="6.15034">
        <ele>406.2</ele>
        <time>2020-05-04T12:47:18.486Z</time>
      </trkpt>
      <trkpt lat="46.19658" lon="6.15015">
        <ele>406.2</ele>
        <time>2020-05-04T12:47:21.867Z</time>
      </trkpt>
      <trkpt lat="46.19681" lon="6.14983">
        <ele>402.6</ele>
        <time>2020-05-04T12:47:24.624Z</time>
      </trkpt>
      <trkpt lat="46.19702" lon="6.14953">
        <ele>400.3</ele>
        <time>2020-05-04T12:47:27.195Z</time>
      </trkpt>
      <trkpt lat="46.19724" lon="6.14919">
        <ele>398.3</ele>
        <time>2020-05-04T12:47:29.867Z</time>
      </trkpt>
      <trkpt lat="46.19737" lon="6.14897">
        <ele>395.6</ele>
        <time>2020-05-04T12:47:31.605Z</time>
      </trkpt>
      <trkpt lat="46.1976" lon="6.14862">
        <ele>395.5</ele>
        <time>2020-05-04T12:47:37.004Z</time>
      </trkpt>
      <trkpt lat="46.19764" lon="6.14857">
        <ele>395.4</ele>
        <time>2020-05-04T12:47:37.702Z</time>
      </trkpt>
      <trkpt lat="46.19767" lon="6.14854">
        <ele>395.4</ele>
        <time>2020-05-04T12:47:38.297Z</time>
      </trkpt>
      <trkpt lat="46.19772" lon="6.14854">
        <ele>395.6</ele>
        <time>2020-05-04T12:47:39.623Z</time>
      </trkpt>
      <trkpt lat="46.19776" lon="6.14859">
        <ele>395.8</ele>
        <time>2020-05-04T12:47:41.032Z</time>
      </trkpt>
      <trkpt lat="46.19795" lon="6.14885">
        <ele>396.4</ele>
        <time>2020-05-04T12:47:46.695Z</time>
      </trkpt>
      <trkpt lat="46.198" lon="6.14891">
        <ele>396.6</ele>
        <time>2020-05-04T12:47:48.169Z</time>
      </trkpt>
      <trkpt lat="46.19805" lon="6.14894">
        <ele>396.8</ele>
        <time>2020-05-04T12:47:49.561Z</time>
      </trkpt>
      <trkpt lat="46.19809" lon="6.14894">
        <ele>396.9</ele>
        <time>2020-05-04T12:47:50.513Z</time>
      </trkpt>
      <trkpt lat="46.19814" lon="6.14891">
        <ele>397</ele>
        <time>2020-05-04T12:47:51.604Z</time>
      </trkpt>
      <trkpt lat="46.19823" lon="6.14879">
        <ele>396.9</ele>
        <time>2020-05-04T12:47:53.358Z</time>
      </trkpt>
      <trkpt lat="46.19837" lon="6.14858">
        <ele>399.5</ele>
        <time>2020-05-04T12:48:05.777Z</time>
      </trkpt>
      <trkpt lat="46.19849" lon="6.1484">
        <ele>399.1</ele>
        <time>2020-05-04T12:48:07.845Z</time>
      </trkpt>
      <trkpt lat="46.19858" lon="6.14827">
        <ele>396.6</ele>
        <time>2020-05-04T12:48:08.928Z</time>
      </trkpt>
      <trkpt lat="46.19868" lon="6.14807">
        <ele>396.2</ele>
        <time>2020-05-04T12:48:11.000Z</time>
      </trkpt>
      <trkpt lat="46.19876" lon="6.14794">
        <ele>395.9</ele>
        <time>2020-05-04T12:48:12.296Z</time>
      </trkpt>
      <trkpt lat="46.19882" lon="6.14786">
        <ele>395.6</ele>
        <time>2020-05-04T12:48:13.198Z</time>
      </trkpt>
      <trkpt lat="46.19891" lon="6.14779">
        <ele>395.4</ele>
        <time>2020-05-04T12:48:14.412Z</time>
      </trkpt>
      <trkpt lat="46.19904" lon="6.1477">
        <ele>394.9</ele>
        <time>2020-05-04T12:48:15.859Z</time>
      </trkpt>
      <trkpt lat="46.1992" lon="6.14759">
        <ele>396.2</ele>
        <time>2020-05-04T12:48:22.199Z</time>
      </trkpt>
      <trkpt lat="46.19948" lon="6.14743">
        <ele>397.8</ele>
        <time>2020-05-04T12:48:31.261Z</time>
      </trkpt>
      <trkpt lat="46.1996" lon="6.14738">
        <ele>399.3</ele>
        <time>2020-05-04T12:48:38.027Z</time>
      </trkpt>
      <trkpt lat="46.19969" lon="6.14733">
        <ele>400.4</ele>
        <time>2020-05-04T12:48:42.960Z</time>
      </trkpt>
      <trkpt lat="46.19978" lon="6.14728">
        <ele>401.1</ele>
        <time>2020-05-04T12:48:46.261Z</time>
      </trkpt>
      <trkpt lat="46.19983" lon="6.14722">
        <ele>401.2</ele>
        <time>2020-05-04T12:48:47.597Z</time>
      </trkpt>
      <trkpt lat="46.19992" lon="6.14712">
        <ele>400.9</ele>
        <time>2020-05-04T12:48:48.788Z</time>
      </trkpt>
      <trkpt lat="46.19998" lon="6.14701">
        <ele>400.6</ele>
        <time>2020-05-04T12:48:49.977Z</time>
      </trkpt>
      <trkpt lat="46.2003" lon="6.14632">
        <ele>401.7</ele>
        <time>2020-05-04T12:49:01.777Z</time>
      </trkpt>
      <trkpt lat="46.20068" lon="6.1455">
        <ele>394.4</ele>
        <time>2020-05-04T12:49:07.685Z</time>
      </trkpt>
      <trkpt lat="46.20132" lon="6.14413">
        <ele>385.4</ele>
        <time>2020-05-04T12:49:17.537Z</time>
      </trkpt>
      <trkpt lat="46.20137" lon="6.14403">
        <ele>385.6</ele>
        <time>2020-05-04T12:49:19.445Z</time>
      </trkpt>
      <trkpt lat="46.20142" lon="6.14397">
        <ele>385.8</ele>
        <time>2020-05-04T12:49:21.071Z</time>
      </trkpt>
      <trkpt lat="46.20151" lon="6.1439">
        <ele>385.9</ele>
        <time>2020-05-04T12:49:22.924Z</time>
      </trkpt>
      <trkpt lat="46.20162" lon="6.14383">
        <ele>385.7</ele>
        <time>2020-05-04T12:49:24.471Z</time>
      </trkpt>
      <trkpt lat="46.20214" lon="6.14363">
        <ele>389.4</ele>
        <time>2020-05-04T12:49:42.697Z</time>
      </trkpt>
      <trkpt lat="46.20297" lon="6.14326">
        <ele>389.6</ele>
        <time>2020-05-04T12:49:57.895Z</time>
      </trkpt>
      <trkpt lat="46.20365" lon="6.14299">
        <ele>385.3</ele>
        <time>2020-05-04T12:50:03.751Z</time>
      </trkpt>
      <trkpt lat="46.20376" lon="6.14295">
        <ele>384.5</ele>
        <time>2020-05-04T12:50:04.734Z</time>
      </trkpt>
      <trkpt lat="46.20387" lon="6.14295">
        <ele>383.9</ele>
        <time>2020-05-04T12:50:05.668Z</time>
      </trkpt>
      <trkpt lat="46.20401" lon="6.14294">
        <ele>383.1</ele>
        <time>2020-05-04T12:50:06.857Z</time>
      </trkpt>
      <trkpt lat="46.20409" lon="6.14294">
        <ele>382.9</ele>
        <time>2020-05-04T12:50:07.770Z</time>
      </trkpt>
      <trkpt lat="46.20417" lon="6.14298">
        <ele>382.7</ele>
        <time>2020-05-04T12:50:08.698Z</time>
      </trkpt>
      <trkpt lat="46.20423" lon="6.14308">
        <ele>378.9</ele>
        <time>2020-05-04T12:50:09.472Z</time>
      </trkpt>
      <trkpt lat="46.20426" lon="6.14318">
        <ele>379.4</ele>
        <time>2020-05-04T12:50:12.077Z</time>
      </trkpt>
      <trkpt lat="46.2043" lon="6.14324">
        <ele>379.5</ele>
        <time>2020-05-04T12:50:13.207Z</time>
      </trkpt>
      <trkpt lat="46.20435" lon="6.14327">
        <ele>379.3</ele>
        <time>2020-05-04T12:50:13.812Z</time>
      </trkpt>
      <trkpt lat="46.20442" lon="6.14327">
        <ele>379</ele>
        <time>2020-05-04T12:50:14.475Z</time>
      </trkpt>
      <trkpt lat="46.20451" lon="6.14324">
        <ele>378.6</ele>
        <time>2020-05-04T12:50:15.357Z</time>
      </trkpt>
      <trkpt lat="46.20464" lon="6.14319">
        <ele>378.1</ele>
        <time>2020-05-04T12:50:16.782Z</time>
      </trkpt>
      <trkpt lat="46.20484" lon="6.14308">
        <ele>377.7</ele>
        <time>2020-05-04T12:50:19.476Z</time>
      </trkpt>
      <trkpt lat="46.20526" lon="6.14288">
        <ele>379</ele>
        <time>2020-05-04T12:50:29.713Z</time>
      </trkpt>
      <trkpt lat="46.20533" lon="6.14287">
        <ele>379.3</ele>
        <time>2020-05-04T12:50:31.745Z</time>
      </trkpt>
      <trkpt lat="46.2054" lon="6.14292">
        <ele>379.7</ele>
        <time>2020-05-04T12:50:33.924Z</time>
      </trkpt>
      <trkpt lat="46.20553" lon="6.14304">
        <ele>380.4</ele>
        <time>2020-05-04T12:50:38.474Z</time>
      </trkpt>
      <trkpt lat="46.20559" lon="6.14307">
        <ele>380.8</ele>
        <time>2020-05-04T12:50:40.474Z</time>
      </trkpt>
      <trkpt lat="46.20566" lon="6.14306">
        <ele>381.1</ele>
        <time>2020-05-04T12:50:42.510Z</time>
      </trkpt>
      <trkpt lat="46.20579" lon="6.14298">
        <ele>381.2</ele>
        <time>2020-05-04T12:50:44.969Z</time>
      </trkpt>
      <trkpt lat="46.20612" lon="6.14276">
        <ele>386.6</ele>
        <time>2020-05-04T12:51:09.300Z</time>
      </trkpt>
      <trkpt lat="46.20649" lon="6.14252">
        <ele>389.4</ele>
        <time>2020-05-04T12:51:23.050Z</time>
      </trkpt>
      <trkpt lat="46.20701" lon="6.14217">
        <ele>391.1</ele>
        <time>2020-05-04T12:51:36.469Z</time>
      </trkpt>
      <trkpt lat="46.20704" lon="6.14214">
        <ele>391.1</ele>
        <time>2020-05-04T12:51:37.160Z</time>
      </trkpt>
      <trkpt lat="46.20711" lon="6.14212">
        <ele>391.1</ele>
        <time>2020-05-04T12:51:38.428Z</time>
      </trkpt>
      <trkpt lat="46.2072" lon="6.14214">
        <ele>391.2</ele>
        <time>2020-05-04T12:51:40.123Z</time>
      </trkpt>
      <trkpt lat="46.20764" lon="6.14237">
        <ele>391.6</ele>
        <time>2020-05-04T12:51:48.660Z</time>
      </trkpt>
      <trkpt lat="46.20776" lon="6.14244">
        <ele>391.2</ele>
        <time>2020-05-04T12:51:50.156Z</time>
      </trkpt>
      <trkpt lat="46.20797" lon="6.14253">
        <ele>390.7</ele>
        <time>2020-05-04T12:51:52.681Z</time>
      </trkpt>
      <trkpt lat="46.20819" lon="6.14261">
        <ele>390.1</ele>
        <time>2020-05-04T12:51:55.268Z</time>
      </trkpt>
      <trkpt lat="46.2083" lon="6.14261">
        <ele>389.8</ele>
        <time>2020-05-04T12:51:56.583Z</time>
      </trkpt>
      <trkpt lat="46.20848" lon="6.14262">
        <ele>389.4</ele>
        <time>2020-05-04T12:51:58.719Z</time>
      </trkpt>
      <trkpt lat="46.20858" lon="6.14261">
        <ele>389.4</ele>
        <time>2020-05-04T12:52:00.486Z</time>
      </trkpt>
      <trkpt lat="46.20875" lon="6.14265">
        <ele>389.4</ele>
        <time>2020-05-04T12:52:03.331Z</time>
      </trkpt>
      <trkpt lat="46.20895" lon="6.14271">
        <ele>389.2</ele>
        <time>2020-05-04T12:52:06.125Z</time>
      </trkpt>
      <trkpt lat="46.20906" lon="6.14274">
        <ele>389.1</ele>
        <time>2020-05-04T12:52:07.742Z</time>
      </trkpt>
      <trkpt lat="46.2091" lon="6.1427">
        <ele>389</ele>
        <time>2020-05-04T12:52:08.385Z</time>
      </trkpt>
      <trkpt lat="46.20917" lon="6.14263">
        <ele>388.7</ele>
        <time>2020-05-04T12:52:09.253Z</time>
      </trkpt>
      <trkpt lat="46.20939" lon="6.14229">
        <ele>390.2</ele>
        <time>2020-05-04T12:52:18.610Z</time>
      </trkpt>
      <trkpt lat="46.20941" lon="6.14224">
        <ele>390.5</ele>
        <time>2020-05-04T12:52:20.091Z</time>
      </trkpt>
      <trkpt lat="46.20941" lon="6.14215">
        <ele>390.8</ele>
        <time>2020-05-04T12:52:21.991Z</time>
      </trkpt>
      <trkpt lat="46.20939" lon="6.14209">
        <ele>391</ele>
        <time>2020-05-04T12:52:23.216Z</time>
      </trkpt>
      <trkpt lat="46.20935" lon="6.14202">
        <ele>391.3</ele>
        <time>2020-05-04T12:52:25.148Z</time>
      </trkpt>
      <trkpt lat="46.20926" lon="6.14192">
        <ele>391.8</ele>
        <time>2020-05-04T12:52:28.374Z</time>
      </trkpt>
      <trkpt lat="46.20897" lon="6.14158">
        <ele>392.4</ele>
        <time>2020-05-04T12:52:35.845Z</time>
      </trkpt>
      <trkpt lat="46.20869" lon="6.14126">
        <ele>391.1</ele>
        <time>2020-05-04T12:52:39.563Z</time>
      </trkpt>
      <trkpt lat="46.20861" lon="6.14116">
        <ele>390.9</ele>
        <time>2020-05-04T12:52:40.876Z</time>
      </trkpt>
      <trkpt lat="46.20858" lon="6.14112">
        <ele>390.8</ele>
        <time>2020-05-04T12:52:41.249Z</time>
      </trkpt>
      <trkpt lat="46.20858" lon="6.14104">
        <ele>390.6</ele>
        <time>2020-05-04T12:52:41.839Z</time>
      </trkpt>
      <trkpt lat="46.20859" lon="6.14089">
        <ele>390.5</ele>
        <time>2020-05-04T12:52:43.330Z</time>
      </trkpt>
      <trkpt lat="46.20864" lon="6.14058">
        <ele>390.3</ele>
        <time>2020-05-04T12:52:46.429Z</time>
      </trkpt>
      <trkpt lat="46.20892" lon="6.14008">
        <ele>391</ele>
        <time>2020-05-04T12:52:55.329Z</time>
      </trkpt>
      <trkpt lat="46.20906" lon="6.13987">
        <ele>392.1</ele>
        <time>2020-05-04T12:53:01.495Z</time>
      </trkpt>
      <trkpt lat="46.20925" lon="6.13951">
        <ele>396.1</ele>
        <time>2020-05-04T12:53:20.580Z</time>
      </trkpt>
      <trkpt lat="46.20946" lon="6.13913">
        <ele>399.3</ele>
        <time>2020-05-04T12:53:34.819Z</time>
      </trkpt>
      <trkpt lat="46.20954" lon="6.13893">
        <ele>399.9</ele>
        <time>2020-05-04T12:53:39.012Z</time>
      </trkpt>
      <trkpt lat="46.20967" lon="6.13865">
        <ele>400.5</ele>
        <time>2020-05-04T12:53:44.237Z</time>
      </trkpt>
      <trkpt lat="46.21" lon="6.1379">
        <ele>403.2</ele>
        <time>2020-05-04T12:54:01.722Z</time>
      </trkpt>
      <trkpt lat="46.2101" lon="6.13766">
        <ele>403.9</ele>
        <time>2020-05-04T12:54:06.670Z</time>
      </trkpt>
      <trkpt lat="46.21016" lon="6.13751">
        <ele>404</ele>
        <time>2020-05-04T12:54:08.949Z</time>
      </trkpt>
      <trkpt lat="46.21021" lon="6.13735">
        <ele>405.3</ele>
        <time>2020-05-04T12:54:14.744Z</time>
      </trkpt>
      <trkpt lat="46.21028" lon="6.13719">
        <ele>405.5</ele>
        <time>2020-05-04T12:54:17.393Z</time>
      </trkpt>
      <trkpt lat="46.21058" lon="6.13647">
        <ele>408.3</ele>
        <time>2020-05-04T12:54:34.540Z</time>
      </trkpt>
      <trkpt lat="46.21081" lon="6.13595">
        <ele>410.4</ele>
        <time>2020-05-04T12:54:47.109Z</time>
      </trkpt>
      <trkpt lat="46.21085" lon="6.13585">
        <ele>411.7</ele>
        <time>2020-05-04T12:54:52.765Z</time>
      </trkpt>
      <trkpt lat="46.21086" lon="6.13584">
        <ele>411.7</ele>
        <time>2020-05-04T12:54:52.877Z</time>
      </trkpt>
      <trkpt lat="46.2109" lon="6.13569">
        <ele>411.4</ele>
        <time>2020-05-04T12:54:54.130Z</time>
      </trkpt>
      <trkpt lat="46.21096" lon="6.13551">
        <ele>411.1</ele>
        <time>2020-05-04T12:54:55.834Z</time>
      </trkpt>
      <trkpt lat="46.21096" lon="6.1355">
        <ele>411.1</ele>
        <time>2020-05-04T12:54:55.924Z</time>
      </trkpt>
      <trkpt lat="46.21105" lon="6.13529">
        <ele>411.2</ele>
        <time>2020-05-04T12:54:58.952Z</time>
      </trkpt>
      <trkpt lat="46.21122" lon="6.13486">
        <ele>412.3</ele>
        <time>2020-05-04T12:55:07.301Z</time>
      </trkpt>
      <trkpt lat="46.21133" lon="6.13463">
        <ele>412.5</ele>
        <time>2020-05-04T12:55:10.879Z</time>
      </trkpt>
      <trkpt lat="46.2114" lon="6.1345">
        <ele>412.8</ele>
        <time>2020-05-04T12:55:13.512Z</time>
      </trkpt>
      <trkpt lat="46.2114" lon="6.13449">
        <ele>412.8</ele>
        <time>2020-05-04T12:55:13.547Z</time>
      </trkpt>
      <trkpt lat="46.21149" lon="6.13435">
        <ele>413.3</ele>
        <time>2020-05-04T12:55:17.007Z</time>
      </trkpt>
      <trkpt lat="46.21158" lon="6.13418">
        <ele>414.2</ele>
        <time>2020-05-04T12:55:21.677Z</time>
      </trkpt>
      <trkpt lat="46.21173" lon="6.13384">
        <ele>415</ele>
        <time>2020-05-04T12:55:28.209Z</time>
      </trkpt>
      <trkpt lat="46.21201" lon="6.13319">
        <ele>415.9</ele>
        <time>2020-05-04T12:55:38.872Z</time>
      </trkpt>
      <trkpt lat="46.21216" lon="6.13289">
        <ele>416.3</ele>
        <time>2020-05-04T12:55:43.923Z</time>
      </trkpt>
      <trkpt lat="46.21259" lon="6.13198">
        <ele>416.2</ele>
        <time>2020-05-04T12:55:56.780Z</time>
      </trkpt>
      <trkpt lat="46.21316" lon="6.1308">
        <ele>415.6</ele>
        <time>2020-05-04T12:56:12.303Z</time>
      </trkpt>
      <trkpt lat="46.21363" lon="6.12982">
        <ele>412.2</ele>
        <time>2020-05-04T12:56:20.389Z</time>
      </trkpt>
      <trkpt lat="46.21367" lon="6.12977">
        <ele>412.3</ele>
        <time>2020-05-04T12:56:21.401Z</time>
      </trkpt>
      <trkpt lat="46.2137" lon="6.12976">
        <ele>412.3</ele>
        <time>2020-05-04T12:56:21.932Z</time>
      </trkpt>
      <trkpt lat="46.21375" lon="6.12976">
        <ele>412.3</ele>
        <time>2020-05-04T12:56:22.820Z</time>
      </trkpt>
      <trkpt lat="46.21382" lon="6.1298">
        <ele>412.4</ele>
        <time>2020-05-04T12:56:24.373Z</time>
      </trkpt>
      <trkpt lat="46.21392" lon="6.12987">
        <ele>412.5</ele>
        <time>2020-05-04T12:56:26.456Z</time>
      </trkpt>
      <trkpt lat="46.21479" lon="6.13039">
        <ele>414.2</ele>
        <time>2020-05-04T12:56:45.609Z</time>
      </trkpt>
      <trkpt lat="46.21545" lon="6.13079">
        <ele>412.9</ele>
        <time>2020-05-04T12:56:54.626Z</time>
      </trkpt>
      <trkpt lat="46.21572" lon="6.13095">
        <ele>412.8</ele>
        <time>2020-05-04T12:56:59.264Z</time>
      </trkpt>
      <trkpt lat="46.21578" lon="6.13096">
        <ele>412.7</ele>
        <time>2020-05-04T12:57:00.096Z</time>
      </trkpt>
      <trkpt lat="46.21585" lon="6.13095">
        <ele>412</ele>
        <time>2020-05-04T12:57:00.659Z</time>
      </trkpt>
      <trkpt lat="46.21589" lon="6.13092">
        <ele>411.9</ele>
        <time>2020-05-04T12:57:01.265Z</time>
      </trkpt>
      <trkpt lat="46.21594" lon="6.13087">
        <ele>411.9</ele>
        <time>2020-05-04T12:57:02.289Z</time>
      </trkpt>
      <trkpt lat="46.216" lon="6.13081">
        <ele>411.1</ele>
        <time>2020-05-04T12:57:02.934Z</time>
      </trkpt>
      <trkpt lat="46.21604" lon="6.13075">
        <ele>410.9</ele>
        <time>2020-05-04T12:57:03.530Z</time>
      </trkpt>
      <trkpt lat="46.21611" lon="6.13058">
        <ele>410.5</ele>
        <time>2020-05-04T12:57:04.960Z</time>
      </trkpt>
      <trkpt lat="46.21617" lon="6.1304">
        <ele>410.1</ele>
        <time>2020-05-04T12:57:06.592Z</time>
      </trkpt>
      <trkpt lat="46.21624" lon="6.1302">
        <ele>409.8</ele>
        <time>2020-05-04T12:57:08.515Z</time>
      </trkpt>
      <trkpt lat="46.2163" lon="6.12999">
        <ele>411</ele>
        <time>2020-05-04T12:57:14.156Z</time>
      </trkpt>
      <trkpt lat="46.21635" lon="6.12978">
        <ele>411.3</ele>
        <time>2020-05-04T12:57:17.320Z</time>
      </trkpt>
      <trkpt lat="46.21636" lon="6.12978">
        <ele>411.3</ele>
        <time>2020-05-04T12:57:17.360Z</time>
      </trkpt>
      <trkpt lat="46.2164" lon="6.1296">
        <ele>411.9</ele>
        <time>2020-05-04T12:57:21.125Z</time>
      </trkpt>
      <trkpt lat="46.2164" lon="6.1296">
        <ele>411.9</ele>
        <time>2020-05-04T12:57:21.187Z</time>
      </trkpt>
      <trkpt lat="46.21647" lon="6.12943">
        <ele>412.3</ele>
        <time>2020-05-04T12:57:24.379Z</time>
      </trkpt>
      <trkpt lat="46.21654" lon="6.12925">
        <ele>412.4</ele>
        <time>2020-05-04T12:57:26.954Z</time>
      </trkpt>
      <trkpt lat="46.21668" lon="6.12885">
        <ele>413.3</ele>
        <time>2020-05-04T12:57:34.192Z</time>
      </trkpt>
      <trkpt lat="46.21684" lon="6.12841">
        <ele>413.9</ele>
        <time>2020-05-04T12:57:41.126Z</time>
      </trkpt>
      <trkpt lat="46.21701" lon="6.12799">
        <ele>417.1</ele>
        <time>2020-05-04T12:57:55.382Z</time>
      </trkpt>
      <trkpt lat="46.21714" lon="6.12767">
        <ele>417.6</ele>
        <time>2020-05-04T12:58:00.680Z</time>
      </trkpt>
      <trkpt lat="46.21724" lon="6.12746">
        <ele>420.4</ele>
        <time>2020-05-04T12:58:12.211Z</time>
      </trkpt>
      <trkpt lat="46.21737" lon="6.1272">
        <ele>421.1</ele>
        <time>2020-05-04T12:58:17.569Z</time>
      </trkpt>
      <trkpt lat="46.2175" lon="6.12699">
        <ele>422.6</ele>
        <time>2020-05-04T12:58:24.588Z</time>
      </trkpt>
      <trkpt lat="46.21766" lon="6.12672">
        <ele>423.7</ele>
        <time>2020-05-04T12:58:31.745Z</time>
      </trkpt>
      <trkpt lat="46.2178" lon="6.12652">
        <ele>426.9</ele>
        <time>2020-05-04T12:58:44.697Z</time>
      </trkpt>
      <trkpt lat="46.2179" lon="6.12641">
        <ele>427.2</ele>
        <time>2020-05-04T12:58:47.425Z</time>
      </trkpt>
      <trkpt lat="46.21797" lon="6.12635">
        <ele>427.4</ele>
        <time>2020-05-04T12:58:49.222Z</time>
      </trkpt>
      <trkpt lat="46.21802" lon="6.12633">
        <ele>427.4</ele>
        <time>2020-05-04T12:58:50.127Z</time>
      </trkpt>
      <trkpt lat="46.21809" lon="6.12631">
        <ele>427.5</ele>
        <time>2020-05-04T12:58:51.431Z</time>
      </trkpt>
      <trkpt lat="46.21815" lon="6.12635">
        <ele>427.5</ele>
        <time>2020-05-04T12:58:52.558Z</time>
      </trkpt>
      <trkpt lat="46.21827" lon="6.12645">
        <ele>427.3</ele>
        <time>2020-05-04T12:58:54.416Z</time>
      </trkpt>
      <trkpt lat="46.21836" lon="6.12654">
        <ele>427</ele>
        <time>2020-05-04T12:58:55.555Z</time>
      </trkpt>
      <trkpt lat="46.21847" lon="6.12667">
        <ele>425.4</ele>
        <time>2020-05-04T12:58:56.791Z</time>
      </trkpt>
      <trkpt lat="46.21878" lon="6.12704">
        <ele>423.3</ele>
        <time>2020-05-04T12:59:00.426Z</time>
      </trkpt>
      <trkpt lat="46.21907" lon="6.12741">
        <ele>422.4</ele>
        <time>2020-05-04T12:59:04.927Z</time>
      </trkpt>
      <trkpt lat="46.21921" lon="6.12759">
        <ele>423.3</ele>
        <time>2020-05-04T12:59:10.494Z</time>
      </trkpt>
      <trkpt lat="46.21935" lon="6.1278">
        <ele>424.8</ele>
        <time>2020-05-04T12:59:17.607Z</time>
      </trkpt>
      <trkpt lat="46.21952" lon="6.12805">
        <ele>425.4</ele>
        <time>2020-05-04T12:59:23.054Z</time>
      </trkpt>
      <trkpt lat="46.21979" lon="6.1285">
        <ele>426.6</ele>
        <time>2020-05-04T12:59:32.601Z</time>
      </trkpt>
      <trkpt lat="46.22012" lon="6.12904">
        <ele>429.8</ele>
        <time>2020-05-04T12:59:48.933Z</time>
      </trkpt>
      <trkpt lat="46.22027" lon="6.12929">
        <ele>428.3</ele>
        <time>2020-05-04T12:59:50.806Z</time>
      </trkpt>
      <trkpt lat="46.22035" lon="6.12943">
        <ele>427.9</ele>
        <time>2020-05-04T12:59:52.148Z</time>
      </trkpt>
      <trkpt lat="46.2204" lon="6.12952">
        <ele>427.7</ele>
        <time>2020-05-04T12:59:53.052Z</time>
      </trkpt>
      <trkpt lat="46.22046" lon="6.1296">
        <ele>427.5</ele>
        <time>2020-05-04T12:59:53.976Z</time>
      </trkpt>
      <trkpt lat="46.22053" lon="6.12966">
        <ele>427.5</ele>
        <time>2020-05-04T12:59:55.424Z</time>
      </trkpt>
      <trkpt lat="46.22064" lon="6.12974">
        <ele>427.6</ele>
        <time>2020-05-04T12:59:57.719Z</time>
      </trkpt>
      <trkpt lat="46.22064" lon="6.12974">
        <ele>427.6</ele>
        <time>2020-05-04T12:59:57.791Z</time>
      </trkpt>
      <trkpt lat="46.22088" lon="6.12987">
        <ele>429.7</ele>
        <time>2020-05-04T13:00:07.484Z</time>
      </trkpt>
      <trkpt lat="46.22088" lon="6.12987">
        <ele>429.7</ele>
        <time>2020-05-04T13:00:07.536Z</time>
      </trkpt>
      <trkpt lat="46.22108" lon="6.12996">
        <ele>430.8</ele>
        <time>2020-05-04T13:00:13.886Z</time>
      </trkpt>
      <trkpt lat="46.22109" lon="6.12997">
        <ele>430.9</ele>
        <time>2020-05-04T13:00:14.350Z</time>
      </trkpt>
      <trkpt lat="46.22127" lon="6.13">
        <ele>431.5</ele>
        <time>2020-05-04T13:00:18.735Z</time>
      </trkpt>
      <trkpt lat="46.22128" lon="6.13001">
        <ele>431.6</ele>
        <time>2020-05-04T13:00:19.205Z</time>
      </trkpt>
      <trkpt lat="46.2214" lon="6.13001">
        <ele>432.5</ele>
        <time>2020-05-04T13:00:23.402Z</time>
      </trkpt>
      <trkpt lat="46.22151" lon="6.12999">
        <ele>434</ele>
        <time>2020-05-04T13:00:30.636Z</time>
      </trkpt>
      <trkpt lat="46.22168" lon="6.12997">
        <ele>436.1</ele>
        <time>2020-05-04T13:00:40.422Z</time>
      </trkpt>
      <trkpt lat="46.22191" lon="6.1299">
        <ele>436.3</ele>
        <time>2020-05-04T13:00:44.697Z</time>
      </trkpt>
      <trkpt lat="46.22208" lon="6.12981">
        <ele>436.6</ele>
        <time>2020-05-04T13:00:48.443Z</time>
      </trkpt>
      <trkpt lat="46.22224" lon="6.12968">
        <ele>436.9</ele>
        <time>2020-05-04T13:00:52.123Z</time>
      </trkpt>
      <trkpt lat="46.22243" lon="6.12951">
        <ele>437.6</ele>
        <time>2020-05-04T13:00:57.412Z</time>
      </trkpt>
      <trkpt lat="46.22257" lon="6.12934">
        <ele>440.3</ele>
        <time>2020-05-04T13:01:09.710Z</time>
      </trkpt>
      <trkpt lat="46.22268" lon="6.12917">
        <ele>442</ele>
        <time>2020-05-04T13:01:17.263Z</time>
      </trkpt>
      <trkpt lat="46.22268" lon="6.12916">
        <ele>442</ele>
        <time>2020-05-04T13:01:17.299Z</time>
      </trkpt>
      <trkpt lat="46.22284" lon="6.12885">
        <ele>442.7</ele>
        <time>2020-05-04T13:01:23.338Z</time>
      </trkpt>
      <trkpt lat="46.22302" lon="6.12853">
        <ele>442.7</ele>
        <time>2020-05-04T13:01:28.221Z</time>
      </trkpt>
      <trkpt lat="46.22318" lon="6.12824">
        <ele>442.6</ele>
        <time>2020-05-04T13:01:32.401Z</time>
      </trkpt>
      <trkpt lat="46.22328" lon="6.1281">
        <ele>442.7</ele>
        <time>2020-05-04T13:01:34.891Z</time>
      </trkpt>
      <trkpt lat="46.22337" lon="6.12798">
        <ele>442.9</ele>
        <time>2020-05-04T13:01:37.237Z</time>
      </trkpt>
      <trkpt lat="46.22347" lon="6.12787">
        <ele>443.1</ele>
        <time>2020-05-04T13:01:39.821Z</time>
      </trkpt>
      <trkpt lat="46.22356" lon="6.12779">
        <ele>443.1</ele>
        <time>2020-05-04T13:01:41.602Z</time>
      </trkpt>
      <trkpt lat="46.22365" lon="6.12772">
        <ele>443.2</ele>
        <time>2020-05-04T13:01:43.613Z</time>
      </trkpt>
      <trkpt lat="46.22376" lon="6.12764">
        <ele>443.1</ele>
        <time>2020-05-04T13:01:45.372Z</time>
      </trkpt>
      <trkpt lat="46.22386" lon="6.12756">
        <ele>443.1</ele>
        <time>2020-05-04T13:01:47.292Z</time>
      </trkpt>
      <trkpt lat="46.22396" lon="6.12747">
        <ele>443.9</ele>
        <time>2020-05-04T13:01:51.178Z</time>
      </trkpt>
      <trkpt lat="46.22404" lon="6.12736">
        <ele>443.9</ele>
        <time>2020-05-04T13:01:53.186Z</time>
      </trkpt>
      <trkpt lat="46.22417" lon="6.12718">
        <ele>446</ele>
        <time>2020-05-04T13:02:02.913Z</time>
      </trkpt>
      <trkpt lat="46.2243" lon="6.127">
        <ele>446.8</ele>
        <time>2020-05-04T13:02:08.135Z</time>
      </trkpt>
      <trkpt lat="46.22452" lon="6.12671">
        <ele>447.4</ele>
        <time>2020-05-04T13:02:14.341Z</time>
      </trkpt>
      <trkpt lat="46.22454" lon="6.12667">
        <ele>447.4</ele>
        <time>2020-05-04T13:02:14.924Z</time>
      </trkpt>
      <trkpt lat="46.22454" lon="6.12663">
        <ele>449.5</ele>
        <time>2020-05-04T13:02:16.899Z</time>
      </trkpt>
      <trkpt lat="46.22453" lon="6.12659">
        <ele>449.6</ele>
        <time>2020-05-04T13:02:17.677Z</time>
      </trkpt>
      <trkpt lat="46.2245" lon="6.12655">
        <ele>449.6</ele>
        <time>2020-05-04T13:02:18.324Z</time>
      </trkpt>
      <trkpt lat="46.22445" lon="6.12649">
        <ele>449.6</ele>
        <time>2020-05-04T13:02:19.465Z</time>
      </trkpt>
      <trkpt lat="46.22412" lon="6.12624">
        <ele>449.6</ele>
        <time>2020-05-04T13:02:25.766Z</time>
      </trkpt>
      <trkpt lat="46.22336" lon="6.12564">
        <ele>452.5</ele>
        <time>2020-05-04T13:02:47.137Z</time>
      </trkpt>
      <trkpt lat="46.22284" lon="6.12523">
        <ele>451</ele>
        <time>2020-05-04T13:02:53.962Z</time>
      </trkpt>
      <trkpt lat="46.22268" lon="6.12509">
        <ele>450.6</ele>
        <time>2020-05-04T13:02:56.204Z</time>
      </trkpt>
      <trkpt lat="46.22264" lon="6.12505">
        <ele>450.5</ele>
        <time>2020-05-04T13:02:56.790Z</time>
      </trkpt>
      <trkpt lat="46.22261" lon="6.125">
        <ele>450.4</ele>
        <time>2020-05-04T13:02:57.276Z</time>
      </trkpt>
      <trkpt lat="46.2226" lon="6.12494">
        <ele>452.1</ele>
        <time>2020-05-04T13:03:00.269Z</time>
      </trkpt>
      <trkpt lat="46.22261" lon="6.12487">
        <ele>452.8</ele>
        <time>2020-05-04T13:03:03.700Z</time>
      </trkpt>
      <trkpt lat="46.22265" lon="6.12476">
        <ele>453.7</ele>
        <time>2020-05-04T13:03:07.710Z</time>
      </trkpt>
      <trkpt lat="46.22289" lon="6.12415">
        <ele>456.9</ele>
        <time>2020-05-04T13:03:23.801Z</time>
      </trkpt>
      <trkpt lat="46.22311" lon="6.12354">
        <ele>457.4</ele>
        <time>2020-05-04T13:03:32.862Z</time>
      </trkpt>
      <trkpt lat="46.22324" lon="6.12317">
        <ele>456.2</ele>
        <time>2020-05-04T13:03:35.651Z</time>
      </trkpt>
      <trkpt lat="46.2233" lon="6.12304">
        <ele>455.4</ele>
        <time>2020-05-04T13:03:36.577Z</time>
      </trkpt>
      <trkpt lat="46.22336" lon="6.12293">
        <ele>456.7</ele>
        <time>2020-05-04T13:03:42.728Z</time>
      </trkpt>
      <trkpt lat="46.22342" lon="6.12285">
        <ele>456.4</ele>
        <time>2020-05-04T13:03:43.648Z</time>
      </trkpt>
      <trkpt lat="46.22348" lon="6.12279">
        <ele>456.1</ele>
        <time>2020-05-04T13:03:44.382Z</time>
      </trkpt>
      <trkpt lat="46.22355" lon="6.12274">
        <ele>456</ele>
        <time>2020-05-04T13:03:45.413Z</time>
      </trkpt>
      <trkpt lat="46.22362" lon="6.12272">
        <ele>456</ele>
        <time>2020-05-04T13:03:46.538Z</time>
      </trkpt>
      <trkpt lat="46.22369" lon="6.12271">
        <ele>456.1</ele>
        <time>2020-05-04T13:03:47.956Z</time>
      </trkpt>
      <trkpt lat="46.22377" lon="6.1227">
        <ele>456.1</ele>
        <time>2020-05-04T13:03:49.343Z</time>
      </trkpt>
      <trkpt lat="46.22385" lon="6.12271">
        <ele>456.1</ele>
        <time>2020-05-04T13:03:50.691Z</time>
      </trkpt>
      <trkpt lat="46.22391" lon="6.12274">
        <ele>456.1</ele>
        <time>2020-05-04T13:03:51.720Z</time>
      </trkpt>
      <trkpt lat="46.224" lon="6.1228">
        <ele>456.3</ele>
        <time>2020-05-04T13:03:53.862Z</time>
      </trkpt>
      <trkpt lat="46.22409" lon="6.12287">
        <ele>456.6</ele>
        <time>2020-05-04T13:03:56.264Z</time>
      </trkpt>
      <trkpt lat="46.22487" lon="6.1235">
        <ele>458.7</ele>
        <time>2020-05-04T13:04:15.659Z</time>
      </trkpt>
      <trkpt lat="46.22544" lon="6.12394">
        <ele>456.1</ele>
        <time>2020-05-04T13:04:22.064Z</time>
      </trkpt>
      <trkpt lat="46.22563" lon="6.12411">
        <ele>454.6</ele>
        <time>2020-05-04T13:04:24.002Z</time>
      </trkpt>
      <trkpt lat="46.22568" lon="6.12415">
        <ele>454</ele>
        <time>2020-05-04T13:04:24.503Z</time>
      </trkpt>
      <trkpt lat="46.22573" lon="6.12416">
        <ele>453.5</ele>
        <time>2020-05-04T13:04:24.931Z</time>
      </trkpt>
      <trkpt lat="46.22577" lon="6.12416">
        <ele>453</ele>
        <time>2020-05-04T13:04:25.286Z</time>
      </trkpt>
      <trkpt lat="46.22581" lon="6.12413">
        <ele>452.7</ele>
        <time>2020-05-04T13:04:25.609Z</time>
      </trkpt>
      <trkpt lat="46.22584" lon="6.12408">
        <ele>453.1</ele>
        <time>2020-05-04T13:04:27.522Z</time>
      </trkpt>
      <trkpt lat="46.22596" lon="6.12382">
        <ele>454.7</ele>
        <time>2020-05-04T13:04:35.076Z</time>
      </trkpt>
      <trkpt lat="46.22615" lon="6.12341">
        <ele>455.5</ele>
        <time>2020-05-04T13:04:42.572Z</time>
      </trkpt>
      <trkpt lat="46.22626" lon="6.12319">
        <ele>456.9</ele>
        <time>2020-05-04T13:04:49.238Z</time>
      </trkpt>
      <trkpt lat="46.22634" lon="6.12303">
        <ele>457.1</ele>
        <time>2020-05-04T13:04:51.915Z</time>
      </trkpt>
      <trkpt lat="46.22659" lon="6.12261">
        <ele>457.2</ele>
        <time>2020-05-04T13:04:58.600Z</time>
      </trkpt>
      <trkpt lat="46.22677" lon="6.1223">
        <ele>457.3</ele>
        <time>2020-05-04T13:05:03.470Z</time>
      </trkpt>
      <trkpt lat="46.2268" lon="6.12226">
        <ele>457.3</ele>
        <time>2020-05-04T13:05:04.280Z</time>
      </trkpt>
      <trkpt lat="46.22684" lon="6.12224">
        <ele>457.3</ele>
        <time>2020-05-04T13:05:05.046Z</time>
      </trkpt>
      <trkpt lat="46.22689" lon="6.12224">
        <ele>457.3</ele>
        <time>2020-05-04T13:05:05.745Z</time>
      </trkpt>
      <trkpt lat="46.22693" lon="6.12226">
        <ele>457.3</ele>
        <time>2020-05-04T13:05:06.529Z</time>
      </trkpt>
      <trkpt lat="46.22696" lon="6.12229">
        <ele>457.3</ele>
        <time>2020-05-04T13:05:07.262Z</time>
      </trkpt>
      <trkpt lat="46.22706" lon="6.12241">
        <ele>457.3</ele>
        <time>2020-05-04T13:05:09.378Z</time>
      </trkpt>
      <trkpt lat="46.22733" lon="6.12272">
        <ele>458.9</ele>
        <time>2020-05-04T13:05:19.499Z</time>
      </trkpt>
      <trkpt lat="46.22743" lon="6.12282">
        <ele>459.3</ele>
        <time>2020-05-04T13:05:22.401Z</time>
      </trkpt>
      <trkpt lat="46.22751" lon="6.12289">
        <ele>459.4</ele>
        <time>2020-05-04T13:05:24.207Z</time>
      </trkpt>
      <trkpt lat="46.22759" lon="6.12295">
        <ele>459.7</ele>
        <time>2020-05-04T13:05:26.368Z</time>
      </trkpt>
      <trkpt lat="46.22768" lon="6.12303">
        <ele>459.9</ele>
        <time>2020-05-04T13:05:28.613Z</time>
      </trkpt>
      <trkpt lat="46.22779" lon="6.1231">
        <ele>459.9</ele>
        <time>2020-05-04T13:05:30.621Z</time>
      </trkpt>
      <trkpt lat="46.22791" lon="6.12317">
        <ele>459.7</ele>
        <time>2020-05-04T13:05:32.330Z</time>
      </trkpt>
      <trkpt lat="46.228" lon="6.12321">
        <ele>459.5</ele>
        <time>2020-05-04T13:05:33.499Z</time>
      </trkpt>
      <trkpt lat="46.22807" lon="6.12323">
        <ele>459.4</ele>
        <time>2020-05-04T13:05:34.377Z</time>
      </trkpt>
      <trkpt lat="46.22811" lon="6.12322">
        <ele>459.4</ele>
        <time>2020-05-04T13:05:35.110Z</time>
      </trkpt>
      <trkpt lat="46.22816" lon="6.1232">
        <ele>459.3</ele>
        <time>2020-05-04T13:05:35.694Z</time>
      </trkpt>
      <trkpt lat="46.22819" lon="6.12315">
        <ele>459.2</ele>
        <time>2020-05-04T13:05:36.176Z</time>
      </trkpt>
      <trkpt lat="46.22822" lon="6.12307">
        <ele>458.8</ele>
        <time>2020-05-04T13:05:36.686Z</time>
      </trkpt>
      <trkpt lat="46.22825" lon="6.12297">
        <ele>458.3</ele>
        <time>2020-05-04T13:05:37.357Z</time>
      </trkpt>
      <trkpt lat="46.2283" lon="6.12284">
        <ele>457.4</ele>
        <time>2020-05-04T13:05:38.242Z</time>
      </trkpt>
      <trkpt lat="46.22834" lon="6.12274">
        <ele>455.1</ele>
        <time>2020-05-04T13:05:38.921Z</time>
      </trkpt>
      <trkpt lat="46.22847" lon="6.12248">
        <ele>452.6</ele>
        <time>2020-05-04T13:05:40.854Z</time>
      </trkpt>
      <trkpt lat="46.22847" lon="6.12247">
        <ele>452.6</ele>
        <time>2020-05-04T13:05:40.922Z</time>
      </trkpt>
      <trkpt lat="46.22851" lon="6.12237">
        <ele>452.4</ele>
        <time>2020-05-04T13:05:41.873Z</time>
      </trkpt>
      <trkpt lat="46.22853" lon="6.12228">
        <ele>452.3</ele>
        <time>2020-05-04T13:05:42.716Z</time>
      </trkpt>
      <trkpt lat="46.22855" lon="6.12217">
        <ele>452.1</ele>
        <time>2020-05-04T13:05:43.586Z</time>
      </trkpt>
      <trkpt lat="46.22855" lon="6.12204">
        <ele>451.9</ele>
        <time>2020-05-04T13:05:44.670Z</time>
      </trkpt>
      <trkpt lat="46.22854" lon="6.12183">
        <ele>451.6</ele>
        <time>2020-05-04T13:05:46.461Z</time>
      </trkpt>
      <trkpt lat="46.22854" lon="6.12172">
        <ele>451.5</ele>
        <time>2020-05-04T13:05:47.432Z</time>
      </trkpt>
      <trkpt lat="46.22855" lon="6.12165">
        <ele>451.1</ele>
        <time>2020-05-04T13:05:47.893Z</time>
      </trkpt>
      <trkpt lat="46.22857" lon="6.12156">
        <ele>451.1</ele>
        <time>2020-05-04T13:05:49.020Z</time>
      </trkpt>
      <trkpt lat="46.22862" lon="6.12147">
        <ele>451.1</ele>
        <time>2020-05-04T13:05:50.372Z</time>
      </trkpt>
      <trkpt lat="46.22871" lon="6.12134">
        <ele>451.2</ele>
        <time>2020-05-04T13:05:52.714Z</time>
      </trkpt>
      <trkpt lat="46.22876" lon="6.12128">
        <ele>451.3</ele>
        <time>2020-05-04T13:05:54.007Z</time>
      </trkpt>
      <trkpt lat="46.229" lon="6.12091">
        <ele>452.4</ele>
        <time>2020-05-04T13:06:02.358Z</time>
      </trkpt>
    </trkseg>
  </trk>
</gpx>